Silver Ridge Township, Maine
Current Conditions -  °F | °C
As of 10:53 AM on Thursday 30 Oct 2014 (Local Time) from KMLT Reporting Station
Broken Clouds Broken Clouds  
Wind Chill: 50°   Ceiling: 3000
Heat Index: 50°   Visibility: 10mi
Dew Point: 39°   Wind: 13mph
Humidity: 66%   Direction: 320°NW
Pressure: 29.86"   Gusts: 18mph
Location:  45.8047°N, 68.2984°W
Report Text: KMLT 301453Z AUTO 32011G16KT 10SM BKN030 10/04 A2986 RMK AO2 SLP117 T01000039 51009
Loading
Personal Weather Stations






























Interactive Weather Map
Tropical Storm Tracking
New forecast layout! Learn more

10-Day Weather Forecast

Advertisements
Track Severe Weather on mobile